sensor_id;sensor_type;location;lat;lon;timestamp;P1;durP1;ratioP1;P2;durP2;ratioP2
75191;SDS011;63771;52.580;9.734;2024-02-26T00:01:32;5.60;;;3.67;;
75191;SDS011;63771;52.580;9.734;2024-02-26T00:03:59;3.70;;;3.40;;
75191;SDS011;63771;52.580;9.734;2024-02-26T00:06:24;9.02;;;4.05;;
75191;SDS011;63771;52.580;9.734;2024-02-26T00:08:50;3.10;;;2.90;;
75191;SDS011;63771;52.580;9.734;2024-02-26T00:11:15;3.57;;;3.27;;
75191;SDS011;63771;52.580;9.734;2024-02-26T00:13:40;3.80;;;3.57;;
75191;SDS011;63771;52.580;9.734;2024-02-26T00:16:06;3.97;;;3.57;;
75191;SDS011;63771;52.580;9.734;2024-02-26T00:18:32;4.75;;;3.25;;
75191;SDS011;63771;52.580;9.734;2024-02-26T00:20:57;3.60;;;3.15;;
75191;SDS011;63771;52.580;9.734;2024-02-26T00:23:23;3.60;;;3.40;;
75191;SDS011;63771;52.580;9.734;2024-02-26T00:25:49;3.60;;;3.40;;
75191;SDS011;63771;52.580;9.734;2024-02-26T00:28:14;3.20;;;3.00;;
75191;SDS011;63771;52.580;9.734;2024-02-26T00:30:39;2.90;;;2.70;;
75191;SDS011;63771;52.580;9.734;2024-02-26T00:33:04;3.33;;;3.13;;
75191;SDS011;63771;52.580;9.734;2024-02-26T00:35:30;2.83;;;2.67;;
75191;SDS011;63771;52.580;9.734;2024-02-26T00:37:55;3.00;;;2.80;;
75191;SDS011;63771;52.580;9.734;2024-02-26T00:40:20;4.13;;;3.73;;
75191;SDS011;63771;52.580;9.734;2024-02-26T00:42:46;2.97;;;2.77;;
75191;SDS011;63771;52.580;9.734;2024-02-26T00:45:12;3.00;;;2.80;;
75191;SDS011;63771;52.580;9.734;2024-02-26T00:47:38;3.58;;;3.20;;
75191;SDS011;63771;52.580;9.734;2024-02-26T00:50:06;3.97;;;3.58;;
75191;SDS011;63771;52.580;9.734;2024-02-26T00:52:32;4.15;;;3.83;;
75191;SDS011;63771;52.580;9.734;2024-02-26T00:54:57;4.10;;;3.75;;
75191;SDS011;63771;52.580;9.734;2024-02-26T00:57:22;4.43;;;4.00;;
75191;SDS011;63771;52.580;9.734;2024-02-26T00:59:48;4.40;;;4.00;;
75191;SDS011;63771;52.580;9.734;2024-02-26T01:02:13;3.53;;;3.23;;
75191;SDS011;63771;52.580;9.734;2024-02-26T01:04:38;4.57;;;3.40;;
75191;SDS011;63771;52.580;9.734;2024-02-26T01:07:04;4.90;;;3.63;;
75191;SDS011;63771;52.580;9.734;2024-02-26T01:09:29;4.33;;;3.73;;
75191;SDS011;63771;52.580;9.734;2024-02-26T01:11:54;4.05;;;3.65;;
75191;SDS011;63771;52.580;9.734;2024-02-26T01:14:20;3.17;;;2.97;;
75191;SDS011;63771;52.580;9.734;2024-02-26T01:16:45;3.23;;;3.03;;
75191;SDS011;63771;52.580;9.734;2024-02-26T01:19:10;3.40;;;3.20;;
75191;SDS011;63771;52.580;9.734;2024-02-26T01:21:36;4.05;;;3.17;;
75191;SDS011;63771;52.580;9.734;2024-02-26T01:24:01;3.78;;;3.13;;
75191;SDS011;63771;52.580;9.734;2024-02-26T01:26:26;4.20;;;3.87;;
75191;SDS011;63771;52.580;9.734;2024-02-26T01:28:52;3.87;;;3.17;;
75191;SDS011;63771;52.580;9.734;2024-02-26T01:31:17;3.40;;;3.20;;
75191;SDS011;63771;52.580;9.734;2024-02-26T01:33:42;3.37;;;3.17;;
75191;SDS011;63771;52.580;9.734;2024-02-26T01:36:07;3.67;;;3.13;;
75191;SDS011;63771;52.580;9.734;2024-02-26T01:38:33;6.57;;;3.50;;
75191;SDS011;63771;52.580;9.734;2024-02-26T01:40:58;4.40;;;3.23;;
75191;SDS011;63771;52.580;9.734;2024-02-26T01:43:23;3.43;;;3.23;;
75191;SDS011;63771;52.580;9.734;2024-02-26T01:45:49;3.67;;;3.13;;
75191;SDS011;63771;52.580;9.734;2024-02-26T01:48:14;3.07;;;2.93;;
75191;SDS011;63771;52.580;9.734;2024-02-26T01:50:39;3.08;;;2.78;;
75191;SDS011;63771;52.580;9.734;2024-02-26T01:53:05;2.80;;;2.60;;
75191;SDS011;63771;52.580;9.734;2024-02-26T01:55:32;2.92;;;2.72;;
75191;SDS011;63771;52.580;9.734;2024-02-26T01:57:58;3.30;;;3.00;;
75191;SDS011;63771;52.580;9.734;2024-02-26T02:00:24;2.72;;;2.60;;
75191;SDS011;63771;52.580;9.734;2024-02-26T02:02:50;3.15;;;2.95;;
75191;SDS011;63771;52.580;9.734;2024-02-26T02:05:15;2.55;;;2.38;;
75191;SDS011;63771;52.580;9.734;2024-02-26T02:07:45;3.10;;;2.88;;
75191;SDS011;63771;52.580;9.734;2024-02-26T02:10:11;3.17;;;2.97;;
75191;SDS011;63771;52.580;9.734;2024-02-26T02:12:37;3.63;;;3.33;;
75191;SDS011;63771;52.580;9.734;2024-02-26T02:15:05;3.47;;;3.22;;
75191;SDS011;63771;52.580;9.734;2024-02-26T02:17:31;3.78;;;3.47;;
75191;SDS011;63771;52.580;9.734;2024-02-26T02:19:56;4.13;;;3.33;;
75191;SDS011;63771;52.580;9.734;2024-02-26T02:22:22;3.37;;;3.07;;
75191;SDS011;63771;52.580;9.734;2024-02-26T02:24:48;3.10;;;2.87;;
75191;SDS011;63771;52.580;9.734;2024-02-26T02:27:14;3.25;;;2.72;;
75191;SDS011;63771;52.580;9.734;2024-02-26T02:29:39;2.60;;;2.45;;
75191;SDS011;63771;52.580;9.734;2024-02-26T02:32:04;3.75;;;3.55;;
75191;SDS011;63771;52.580;9.734;2024-02-26T02:34:31;2.95;;;2.75;;
75191;SDS011;63771;52.580;9.734;2024-02-26T02:36:57;3.85;;;3.55;;
75191;SDS011;63771;52.580;9.734;2024-02-26T02:39:23;3.30;;;3.10;;
75191;SDS011;63771;52.580;9.734;2024-02-26T02:41:48;3.60;;;3.30;;
75191;SDS011;63771;52.580;9.734;2024-02-26T02:44:13;2.90;;;2.80;;
75191;SDS011;63771;52.580;9.734;2024-02-26T02:46:39;3.53;;;3.23;;
75191;SDS011;63771;52.580;9.734;2024-02-26T02:49:07;3.78;;;3.47;;
75191;SDS011;63771;52.580;9.734;2024-02-26T02:51:33;5.65;;;4.20;;
75191;SDS011;63771;52.580;9.734;2024-02-26T02:53:59;3.27;;;3.07;;
75191;SDS011;63771;52.580;9.734;2024-02-26T02:56:24;4.17;;;3.87;;
75191;SDS011;63771;52.580;9.734;2024-02-26T02:58:49;3.47;;;3.17;;
75191;SDS011;63771;52.580;9.734;2024-02-26T03:01:15;3.70;;;3.20;;
75191;SDS011;63771;52.580;9.734;2024-02-26T03:03:40;3.53;;;3.23;;
75191;SDS011;63771;52.580;9.734;2024-02-26T03:06:06;3.90;;;3.53;;
75191;SDS011;63771;52.580;9.734;2024-02-26T03:08:31;3.65;;;3.35;;
75191;SDS011;63771;52.580;9.734;2024-02-26T03:10:58;3.83;;;3.53;;
75191;SDS011;63771;52.580;9.734;2024-02-26T03:13:24;4.25;;;3.65;;
75191;SDS011;63771;52.580;9.734;2024-02-26T03:15:49;4.00;;;3.70;;
75191;SDS011;63771;52.580;9.734;2024-02-26T03:18:14;3.63;;;3.33;;
75191;SDS011;63771;52.580;9.734;2024-02-26T03:20:40;3.72;;;2.92;;
75191;SDS011;63771;52.580;9.734;2024-02-26T03:23:05;4.00;;;3.60;;
75191;SDS011;63771;52.580;9.734;2024-02-26T03:25:30;4.10;;;3.53;;
75191;SDS011;63771;52.580;9.734;2024-02-26T03:27:56;3.97;;;3.27;;
75191;SDS011;63771;52.580;9.734;2024-02-26T03:30:21;3.53;;;3.23;;
75191;SDS011;63771;52.580;9.734;2024-02-26T03:32:46;3.00;;;2.65;;
75191;SDS011;63771;52.580;9.734;2024-02-26T03:35:12;3.05;;;2.88;;
75191;SDS011;63771;52.580;9.734;2024-02-26T03:37:38;5.22;;;3.35;;
75191;SDS011;63771;52.580;9.734;2024-02-26T03:40:03;3.10;;;2.83;;
75191;SDS011;63771;52.580;9.734;2024-02-26T03:42:29;3.25;;;2.90;;
75191;SDS011;63771;52.580;9.734;2024-02-26T03:44:54;3.03;;;2.73;;
75191;SDS011;63771;52.580;9.734;2024-02-26T03:47:20;3.27;;;2.60;;
75191;SDS011;63771;52.580;9.734;2024-02-26T03:49:45;3.53;;;3.23;;
75191;SDS011;63771;52.580;9.734;2024-02-26T03:52:10;3.43;;;3.07;;
75191;SDS011;63771;52.580;9.734;2024-02-26T03:54:36;2.93;;;2.73;;
75191;SDS011;63771;52.580;9.734;2024-02-26T03:57:01;4.67;;;3.03;;
75191;SDS011;63771;52.580;9.734;2024-02-26T03:59:26;3.30;;;3.10;;
75191;SDS011;63771;52.580;9.734;2024-02-26T04:01:52;3.63;;;2.83;;
75191;SDS011;63771;52.580;9.734;2024-02-26T04:04:17;2.93;;;2.63;;
75191;SDS011;63771;52.580;9.734;2024-02-26T04:06:45;5.00;;;3.43;;
75191;SDS011;63771;52.580;9.734;2024-02-26T04:11:36;2.78;;;2.50;;
75191;SDS011;63771;52.580;9.734;2024-02-26T04:14:02;2.83;;;2.63;;
75191;SDS011;63771;52.580;9.734;2024-02-26T04:16:28;3.10;;;2.90;;
75191;SDS011;63771;52.580;9.734;2024-02-26T04:18:53;2.97;;;2.80;;
75191;SDS011;63771;52.580;9.734;2024-02-26T04:21:19;2.90;;;2.78;;
75191;SDS011;63771;52.580;9.734;2024-02-26T04:23:45;4.18;;;2.88;;
75191;SDS011;63771;52.580;9.734;2024-02-26T04:26:10;3.05;;;2.85;;
75191;SDS011;63771;52.580;9.734;2024-02-26T04:28:36;2.90;;;2.70;;
75191;SDS011;63771;52.580;9.734;2024-02-26T04:31:01;3.00;;;2.80;;
75191;SDS011;63771;52.580;9.734;2024-02-26T04:33:26;3.03;;;2.83;;
75191;SDS011;63771;52.580;9.734;2024-02-26T04:35:52;3.07;;;2.87;;
75191;SDS011;63771;52.580;9.734;2024-02-26T04:38:17;2.63;;;2.50;;
75191;SDS011;63771;52.580;9.734;2024-02-26T04:40:42;2.70;;;2.50;;
75191;SDS011;63771;52.580;9.734;2024-02-26T04:43:08;3.03;;;2.83;;
75191;SDS011;63771;52.580;9.734;2024-02-26T04:45:33;2.73;;;2.53;;
75191;SDS011;63771;52.580;9.734;2024-02-26T04:47:59;2.80;;;2.60;;
75191;SDS011;63771;52.580;9.734;2024-02-26T04:50:24;2.80;;;2.60;;
75191;SDS011;63771;52.580;9.734;2024-02-26T04:52:50;3.58;;;3.25;;
75191;SDS011;63771;52.580;9.734;2024-02-26T04:55:15;4.03;;;3.57;;
75191;SDS011;63771;52.580;9.734;2024-02-26T04:57:40;2.77;;;2.60;;
75191;SDS011;63771;52.580;9.734;2024-02-26T05:00:06;3.00;;;2.80;;
75191;SDS011;63771;52.580;9.734;2024-02-26T05:02:32;2.63;;;2.53;;
75191;SDS011;63771;52.580;9.734;2024-02-26T05:04:58;2.75;;;2.55;;
75191;SDS011;63771;52.580;9.734;2024-02-26T05:07:24;3.10;;;2.63;;
75191;SDS011;63771;52.580;9.734;2024-02-26T05:09:49;2.40;;;2.20;;
75191;SDS011;63771;52.580;9.734;2024-02-26T05:12:14;2.33;;;2.13;;
75191;SDS011;63771;52.580;9.734;2024-02-26T05:14:40;2.75;;;2.65;;
75191;SDS011;63771;52.580;9.734;2024-02-26T05:17:05;3.27;;;2.97;;
75191;SDS011;63771;52.580;9.734;2024-02-26T05:19:31;2.47;;;2.38;;
75191;SDS011;63771;52.580;9.734;2024-02-26T05:21:56;2.50;;;2.40;;
75191;SDS011;63771;52.580;9.734;2024-02-26T05:24:22;2.65;;;2.55;;
75191;SDS011;63771;52.580;9.734;2024-02-26T05:26:47;2.15;;;2.05;;
75191;SDS011;63771;52.580;9.734;2024-02-26T05:29:13;2.38;;;2.22;;
75191;SDS011;63771;52.580;9.734;2024-02-26T05:31:38;2.63;;;2.43;;
75191;SDS011;63771;52.580;9.734;2024-02-26T05:34:03;3.03;;;2.70;;
75191;SDS011;63771;52.580;9.734;2024-02-26T05:36:29;2.30;;;2.10;;
75191;SDS011;63771;52.580;9.734;2024-02-26T05:38:58;3.05;;;2.28;;
75191;SDS011;63771;52.580;9.734;2024-02-26T05:41:24;2.35;;;2.25;;
75191;SDS011;63771;52.580;9.734;2024-02-26T05:43:51;2.47;;;2.33;;
75191;SDS011;63771;52.580;9.734;2024-02-26T05:46:20;3.38;;;2.58;;
75191;SDS011;63771;52.580;9.734;2024-02-26T05:48:50;3.22;;;2.40;;
75191;SDS011;63771;52.580;9.734;2024-02-26T05:51:16;2.70;;;2.60;;
75191;SDS011;63771;52.580;9.734;2024-02-26T05:53:41;3.15;;;2.70;;
75191;SDS011;63771;52.580;9.734;2024-02-26T05:56:07;3.55;;;3.13;;
75191;SDS011;63771;52.580;9.734;2024-02-26T05:58:33;3.25;;;2.75;;
75191;SDS011;63771;52.580;9.734;2024-02-26T06:00:58;2.70;;;2.50;;
75191;SDS011;63771;52.580;9.734;2024-02-26T06:03:25;2.22;;;2.03;;
75191;SDS011;63771;52.580;9.734;2024-02-26T06:05:50;2.42;;;2.22;;
75191;SDS011;63771;52.580;9.734;2024-02-26T06:08:15;3.13;;;2.83;;
75191;SDS011;63771;52.580;9.734;2024-02-26T06:10:41;5.47;;;4.87;;
75191;SDS011;63771;52.580;9.734;2024-02-26T06:13:06;6.23;;;5.70;;
75191;SDS011;63771;52.580;9.734;2024-02-26T06:15:31;5.20;;;3.70;;
75191;SDS011;63771;52.580;9.734;2024-02-26T06:17:56;3.97;;;3.23;;
75191;SDS011;63771;52.580;9.734;2024-02-26T06:20:22;3.20;;;2.90;;
75191;SDS011;63771;52.580;9.734;2024-02-26T06:22:47;4.63;;;3.17;;
75191;SDS011;63771;52.580;9.734;2024-02-26T06:25:12;5.40;;;3.90;;
75191;SDS011;63771;52.580;9.734;2024-02-26T06:27:38;11.70;;;6.63;;
75191;SDS011;63771;52.580;9.734;2024-02-26T06:30:03;12.30;;;6.30;;
75191;SDS011;63771;52.580;9.734;2024-02-26T06:32:29;9.10;;;6.38;;
75191;SDS011;63771;52.580;9.734;2024-02-26T06:34:55;3.63;;;3.33;;
75191;SDS011;63771;52.580;9.734;2024-02-26T06:37:20;5.07;;;4.07;;
75191;SDS011;63771;52.580;9.734;2024-02-26T06:39:45;5.00;;;4.17;;
75191;SDS011;63771;52.580;9.734;2024-02-26T06:42:11;3.28;;;2.97;;
75191;SDS011;63771;52.580;9.734;2024-02-26T06:44:37;3.67;;;3.38;;
75191;SDS011;63771;52.580;9.734;2024-02-26T06:47:02;3.33;;;3.13;;
75191;SDS011;63771;52.580;9.734;2024-02-26T06:49:28;3.03;;;2.63;;
75191;SDS011;63771;52.580;9.734;2024-02-26T06:51:54;2.50;;;2.30;;
75191;SDS011;63771;52.580;9.734;2024-02-26T06:54:20;3.03;;;2.63;;
75191;SDS011;63771;52.580;9.734;2024-02-26T06:56:45;2.85;;;2.65;;
75191;SDS011;63771;52.580;9.734;2024-02-26T06:59:11;2.60;;;2.40;;
75191;SDS011;63771;52.580;9.734;2024-02-26T07:01:36;2.43;;;2.33;;
75191;SDS011;63771;52.580;9.734;2024-02-26T07:04:01;3.22;;;3.03;;
75191;SDS011;63771;52.580;9.734;2024-02-26T07:06:27;3.77;;;3.30;;
75191;SDS011;63771;52.580;9.734;2024-02-26T07:08:52;3.50;;;3.30;;
75191;SDS011;63771;52.580;9.734;2024-02-26T07:11:18;4.20;;;3.88;;
75191;SDS011;63771;52.580;9.734;2024-02-26T07:13:45;8.32;;;7.40;;
75191;SDS011;63771;52.580;9.734;2024-02-26T07:16:10;9.77;;;8.82;;
75191;SDS011;63771;52.580;9.734;2024-02-26T07:18:36;4.18;;;3.78;;
75191;SDS011;63771;52.580;9.734;2024-02-26T07:21:02;3.50;;;3.20;;
75191;SDS011;63771;52.580;9.734;2024-02-26T07:23:27;3.75;;;3.45;;
75191;SDS011;63771;52.580;9.734;2024-02-26T07:25:53;2.37;;;2.27;;
75191;SDS011;63771;52.580;9.734;2024-02-26T07:28:18;3.38;;;3.08;;
75191;SDS011;63771;52.580;9.734;2024-02-26T07:30:44;2.25;;;2.15;;
75191;SDS011;63771;52.580;9.734;2024-02-26T07:33:10;2.70;;;2.50;;
75191;SDS011;63771;52.580;9.734;2024-02-26T07:35:35;4.85;;;2.35;;
75191;SDS011;63771;52.580;9.734;2024-02-26T07:38:01;2.30;;;2.10;;
75191;SDS011;63771;52.580;9.734;2024-02-26T07:40:27;2.63;;;2.30;;
75191;SDS011;63771;52.580;9.734;2024-02-26T07:42:52;2.77;;;2.50;;
75191;SDS011;63771;52.580;9.734;2024-02-26T07:45:17;2.13;;;2.03;;
75191;SDS011;63771;52.580;9.734;2024-02-26T07:47:45;2.95;;;2.70;;
75191;SDS011;63771;52.580;9.734;2024-02-26T07:50:11;2.33;;;2.13;;
75191;SDS011;63771;52.580;9.734;2024-02-26T07:52:37;2.55;;;2.45;;
75191;SDS011;63771;52.580;9.734;2024-02-26T07:55:02;2.85;;;2.65;;
75191;SDS011;63771;52.580;9.734;2024-02-26T07:57:28;4.82;;;3.22;;
75191;SDS011;63771;52.580;9.734;2024-02-26T07:59:53;3.40;;;3.10;;
75191;SDS011;63771;52.580;9.734;2024-02-26T08:02:18;4.77;;;3.73;;
75191;SDS011;63771;52.580;9.734;2024-02-26T08:04:44;5.10;;;3.97;;
75191;SDS011;63771;52.580;9.734;2024-02-26T08:07:09;2.80;;;2.60;;
75191;SDS011;63771;52.580;9.734;2024-02-26T08:09:34;3.07;;;2.80;;
75191;SDS011;63771;52.580;9.734;2024-02-26T08:12:00;3.40;;;2.57;;
75191;SDS011;63771;52.580;9.734;2024-02-26T08:14:25;2.17;;;2.07;;
75191;SDS011;63771;52.580;9.734;2024-02-26T08:16:50;3.27;;;2.70;;
75191;SDS011;63771;52.580;9.734;2024-02-26T08:19:16;2.67;;;2.47;;
75191;SDS011;63771;52.580;9.734;2024-02-26T08:21:42;2.63;;;2.42;;
75191;SDS011;63771;52.580;9.734;2024-02-26T08:24:07;2.67;;;2.47;;
75191;SDS011;63771;52.580;9.734;2024-02-26T08:26:33;2.95;;;2.65;;
75191;SDS011;63771;52.580;9.734;2024-02-26T08:28:58;2.43;;;2.30;;
75191;SDS011;63771;52.580;9.734;2024-02-26T08:31:23;3.27;;;3.03;;
75191;SDS011;63771;52.580;9.734;2024-02-26T08:33:49;4.10;;;2.50;;
75191;SDS011;63771;52.580;9.734;2024-02-26T08:36:14;3.20;;;3.00;;
75191;SDS011;63771;52.580;9.734;2024-02-26T08:38:39;2.87;;;2.73;;
75191;SDS011;63771;52.580;9.734;2024-02-26T08:41:05;2.25;;;2.10;;
75191;SDS011;63771;52.580;9.734;2024-02-26T08:43:30;3.40;;;3.10;;
75191;SDS011;63771;52.580;9.734;2024-02-26T08:45:56;2.78;;;2.58;;
75191;SDS011;63771;52.580;9.734;2024-02-26T08:48:22;3.33;;;2.67;;
75191;SDS011;63771;52.580;9.734;2024-02-26T08:50:47;2.53;;;2.23;;
75191;SDS011;63771;52.580;9.734;2024-02-26T08:53:12;3.03;;;2.57;;
75191;SDS011;63771;52.580;9.734;2024-02-26T08:55:38;2.40;;;2.20;;
75191;SDS011;63771;52.580;9.734;2024-02-26T08:58:03;2.60;;;2.40;;
75191;SDS011;63771;52.580;9.734;2024-02-26T09:00:28;2.05;;;1.95;;
75191;SDS011;63771;52.580;9.734;2024-02-26T09:02:54;2.27;;;2.07;;
75191;SDS011;63771;52.580;9.734;2024-02-26T09:05:19;2.72;;;2.53;;
75191;SDS011;63771;52.580;9.734;2024-02-26T09:07:44;2.10;;;1.97;;
75191;SDS011;63771;52.580;9.734;2024-02-26T09:10:11;2.80;;;2.60;;
75191;SDS011;63771;52.580;9.734;2024-02-26T09:12:37;2.63;;;2.53;;
75191;SDS011;63771;52.580;9.734;2024-02-26T09:15:02;2.17;;;2.08;;
75191;SDS011;63771;52.580;9.734;2024-02-26T09:17:28;2.35;;;2.25;;
75191;SDS011;63771;52.580;9.734;2024-02-26T09:19:53;2.73;;;2.53;;
75191;SDS011;63771;52.580;9.734;2024-02-26T09:22:19;2.57;;;2.37;;
75191;SDS011;63771;52.580;9.734;2024-02-26T09:24:44;2.60;;;2.40;;
75191;SDS011;63771;52.580;9.734;2024-02-26T09:27:09;2.63;;;2.30;;
75191;SDS011;63771;52.580;9.734;2024-02-26T09:29:35;1.97;;;1.87;;
75191;SDS011;63771;52.580;9.734;2024-02-26T09:32:00;2.65;;;2.45;;
75191;SDS011;63771;52.580;9.734;2024-02-26T09:34:26;2.57;;;2.17;;
75191;SDS011;63771;52.580;9.734;2024-02-26T09:36:51;2.27;;;2.17;;
75191;SDS011;63771;52.580;9.734;2024-02-26T09:39:16;2.33;;;2.20;;
75191;SDS011;63771;52.580;9.734;2024-02-26T09:41:46;2.67;;;2.03;;
75191;SDS011;63771;52.580;9.734;2024-02-26T09:44:12;2.85;;;2.63;;
75191;SDS011;63771;52.580;9.734;2024-02-26T09:46:40;2.22;;;2.03;;
75191;SDS011;63771;52.580;9.734;2024-02-26T09:49:06;2.67;;;2.47;;
75191;SDS011;63771;52.580;9.734;2024-02-26T09:51:31;3.03;;;2.42;;
75191;SDS011;63771;52.580;9.734;2024-02-26T09:53:57;2.40;;;2.28;;
75191;SDS011;63771;52.580;9.734;2024-02-26T09:58:51;3.13;;;2.92;;
75191;SDS011;63771;52.580;9.734;2024-02-26T10:01:19;2.00;;;1.88;;
75191;SDS011;63771;52.580;9.734;2024-02-26T10:03:46;2.53;;;2.38;;
75191;SDS011;63771;52.580;9.734;2024-02-26T10:06:16;2.78;;;2.58;;
75191;SDS011;63771;52.580;9.734;2024-02-26T10:08:42;4.07;;;2.63;;
75191;SDS011;63771;52.580;9.734;2024-02-26T10:11:09;2.47;;;2.28;;
75191;SDS011;63771;52.580;9.734;2024-02-26T10:13:35;3.83;;;2.42;;
75191;SDS011;63771;52.580;9.734;2024-02-26T10:16:01;2.50;;;2.30;;
75191;SDS011;63771;52.580;9.734;2024-02-26T10:18:44;3.70;;;2.70;;
75191;SDS011;63771;52.580;9.734;2024-02-26T10:21:13;2.53;;;2.33;;
75191;SDS011;63771;52.580;9.734;2024-02-26T10:23:40;2.17;;;2.08;;
75191;SDS011;63771;52.580;9.734;2024-02-26T10:26:06;2.67;;;2.35;;
75191;SDS011;63771;52.580;9.734;2024-02-26T10:28:32;1.97;;;1.87;;
75191;SDS011;63771;52.580;9.734;2024-02-26T10:30:58;1.73;;;1.63;;
75191;SDS011;63771;52.580;9.734;2024-02-26T10:33:23;3.47;;;2.30;;
75191;SDS011;63771;52.580;9.734;2024-02-26T10:35:49;2.60;;;2.40;;
75191;SDS011;63771;52.580;9.734;2024-02-26T10:38:15;2.15;;;1.98;;
75191;SDS011;63771;52.580;9.734;2024-02-26T10:40:45;2.33;;;2.05;;
75191;SDS011;63771;52.580;9.734;2024-02-26T10:43:10;2.28;;;2.08;;
75191;SDS011;63771;52.580;9.734;2024-02-26T10:45:35;2.03;;;1.83;;
75191;SDS011;63771;52.580;9.734;2024-02-26T10:48:02;2.83;;;2.13;;
75191;SDS011;63771;52.580;9.734;2024-02-26T10:50:27;5.13;;;2.58;;
75191;SDS011;63771;52.580;9.734;2024-02-26T10:52:53;4.22;;;3.60;;
75191;SDS011;63771;52.580;9.734;2024-02-26T10:55:20;3.85;;;2.50;;
75191;SDS011;63771;52.580;9.734;2024-02-26T10:57:47;4.65;;;2.50;;
75191;SDS011;63771;52.580;9.734;2024-02-26T11:00:14;3.08;;;2.30;;
75191;SDS011;63771;52.580;9.734;2024-02-26T11:02:41;2.65;;;2.05;;
75191;SDS011;63771;52.580;9.734;2024-02-26T11:05:07;5.40;;;3.13;;
75191;SDS011;63771;52.580;9.734;2024-02-26T11:07:34;4.03;;;2.53;;
75191;SDS011;63771;52.580;9.734;2024-02-26T11:10:02;2.63;;;2.42;;
75191;SDS011;63771;52.580;9.734;2024-02-26T11:12:29;3.75;;;3.22;;
75191;SDS011;63771;52.580;9.734;2024-02-26T11:14:56;3.60;;;2.70;;
75191;SDS011;63771;52.580;9.734;2024-02-26T11:17:23;2.17;;;1.90;;
75191;SDS011;63771;52.580;9.734;2024-02-26T11:19:51;3.10;;;2.38;;
75191;SDS011;63771;52.580;9.734;2024-02-26T11:22:20;1.92;;;1.73;;
75191;SDS011;63771;52.580;9.734;2024-02-26T11:24:47;1.52;;;1.42;;
75191;SDS011;63771;52.580;9.734;2024-02-26T11:27:13;1.92;;;1.83;;
75191;SDS011;63771;52.580;9.734;2024-02-26T11:29:43;2.15;;;1.92;;
75191;SDS011;63771;52.580;9.734;2024-02-26T11:32:12;1.65;;;1.55;;
75191;SDS011;63771;52.580;9.734;2024-02-26T11:34:38;1.88;;;1.77;;
75191;SDS011;63771;52.580;9.734;2024-02-26T11:37:37;1.50;;;1.45;;
75191;SDS011;63771;52.580;9.734;2024-02-26T11:39:55;1.65;;;1.55;;
75191;SDS011;63771;52.580;9.734;2024-02-26T11:42:24;1.77;;;1.38;;
75191;SDS011;63771;52.580;9.734;2024-02-26T11:44:54;1.30;;;1.30;;
75191;SDS011;63771;52.580;9.734;2024-02-26T11:47:25;1.45;;;1.35;;
75191;SDS011;63771;52.580;9.734;2024-02-26T11:49:52;1.60;;;1.30;;
75191;SDS011;63771;52.580;9.734;2024-02-26T11:52:17;1.30;;;1.20;;
75191;SDS011;63771;52.580;9.734;2024-02-26T12:00:15;1.20;;;1.10;;
75191;SDS011;63771;52.580;9.734;2024-02-26T12:05:14;1.20;;;1.10;;
75191;SDS011;63771;52.580;9.734;2024-02-26T12:07:54;1.23;;;1.08;;
75191;SDS011;63771;52.580;9.734;2024-02-26T12:12:50;0.95;;;0.95;;
75191;SDS011;63771;52.580;9.734;2024-02-26T12:15:18;0.90;;;0.90;;
75191;SDS011;63771;52.580;9.734;2024-02-26T12:17:47;0.98;;;0.98;;
75191;SDS011;63771;52.580;9.734;2024-02-26T12:22:42;1.52;;;1.27;;
75191;SDS011;63771;52.580;9.734;2024-02-26T12:25:10;0.90;;;0.90;;
75191;SDS011;63771;52.580;9.734;2024-02-26T12:27:35;1.00;;;0.90;;
75191;SDS011;63771;52.580;9.734;2024-02-26T12:30:02;1.00;;;1.00;;
75191;SDS011;63771;52.580;9.734;2024-02-26T12:32:28;1.17;;;0.93;;
75191;SDS011;63771;52.580;9.734;2024-02-26T12:34:54;1.23;;;1.13;;
75191;SDS011;63771;52.580;9.734;2024-02-26T12:37:19;1.15;;;1.02;;
75191;SDS011;63771;52.580;9.734;2024-02-26T12:39:45;1.48;;;1.17;;
75191;SDS011;63771;52.580;9.734;2024-02-26T12:42:11;0.88;;;0.82;;
75191;SDS011;63771;52.580;9.734;2024-02-26T12:44:37;1.98;;;1.30;;
75191;SDS011;63771;52.580;9.734;2024-02-26T12:47:03;0.80;;;0.80;;
75191;SDS011;63771;52.580;9.734;2024-02-26T12:49:29;0.90;;;0.90;;
75191;SDS011;63771;52.580;9.734;2024-02-26T12:51:54;1.53;;;1.43;;
75191;SDS011;63771;52.580;9.734;2024-02-26T12:54:26;0.80;;;0.80;;
75191;SDS011;63771;52.580;9.734;2024-02-26T12:56:56;0.85;;;0.85;;
75191;SDS011;63771;52.580;9.734;2024-02-26T12:59:22;1.10;;;1.00;;
75191;SDS011;63771;52.580;9.734;2024-02-26T13:01:48;1.27;;;1.27;;
75191;SDS011;63771;52.580;9.734;2024-02-26T13:04:14;1.15;;;1.15;;
75191;SDS011;63771;52.580;9.734;2024-02-26T13:06:39;1.65;;;1.25;;
75191;SDS011;63771;52.580;9.734;2024-02-26T13:09:05;1.08;;;1.00;;
75191;SDS011;63771;52.580;9.734;2024-02-26T13:11:31;1.17;;;0.95;;
75191;SDS011;63771;52.580;9.734;2024-02-26T13:13:57;1.38;;;1.33;;
75191;SDS011;63771;52.580;9.734;2024-02-26T13:16:23;1.33;;;1.23;;
75191;SDS011;63771;52.580;9.734;2024-02-26T13:18:50;0.93;;;0.93;;
75191;SDS011;63771;52.580;9.734;2024-02-26T13:21:15;1.35;;;1.27;;
75191;SDS011;63771;52.580;9.734;2024-02-26T13:23:43;1.38;;;1.27;;
75191;SDS011;63771;52.580;9.734;2024-02-26T13:26:13;1.38;;;1.27;;
75191;SDS011;63771;52.580;9.734;2024-02-26T13:28:38;1.33;;;1.23;;
75191;SDS011;63771;52.580;9.734;2024-02-26T13:31:04;1.55;;;1.05;;
75191;SDS011;63771;52.580;9.734;2024-02-26T13:33:32;1.60;;;1.25;;
75191;SDS011;63771;52.580;9.734;2024-02-26T13:35:58;2.17;;;1.10;;
75191;SDS011;63771;52.580;9.734;2024-02-26T13:38:24;1.10;;;1.10;;
75191;SDS011;63771;52.580;9.734;2024-02-26T13:40:50;0.98;;;0.98;;
75191;SDS011;63771;52.580;9.734;2024-02-26T13:43:16;2.55;;;1.10;;
75191;SDS011;63771;52.580;9.734;2024-02-26T13:45:41;1.25;;;1.20;;
75191;SDS011;63771;52.580;9.734;2024-02-26T13:48:07;0.90;;;0.90;;
75191;SDS011;63771;52.580;9.734;2024-02-26T13:50:35;1.08;;;0.90;;
75191;SDS011;63771;52.580;9.734;2024-02-26T13:53:00;1.27;;;1.10;;
75191;SDS011;63771;52.580;9.734;2024-02-26T13:55:26;0.90;;;0.90;;
75191;SDS011;63771;52.580;9.734;2024-02-26T13:57:53;1.10;;;1.10;;
75191;SDS011;63771;52.580;9.734;2024-02-26T14:00:19;1.10;;;1.10;;
75191;SDS011;63771;52.580;9.734;2024-02-26T14:02:45;1.35;;;1.00;;
75191;SDS011;63771;52.580;9.734;2024-02-26T14:05:10;1.02;;;0.65;;
75191;SDS011;63771;52.580;9.734;2024-02-26T14:07:36;1.10;;;0.93;;
75191;SDS011;63771;52.580;9.734;2024-02-26T14:10:01;1.10;;;1.10;;
75191;SDS011;63771;52.580;9.734;2024-02-26T14:12:27;0.77;;;0.77;;
75191;SDS011;63771;52.580;9.734;2024-02-26T14:14:53;0.80;;;0.80;;
75191;SDS011;63771;52.580;9.734;2024-02-26T14:17:20;2.58;;;1.10;;
75191;SDS011;63771;52.580;9.734;2024-02-26T14:19:45;1.73;;;1.45;;
75191;SDS011;63771;52.580;9.734;2024-02-26T14:22:13;0.95;;;0.90;;
75191;SDS011;63771;52.580;9.734;2024-02-26T14:24:40;1.08;;;0.98;;
75191;SDS011;63771;52.580;9.734;2024-02-26T14:27:07;0.90;;;0.90;;
75191;SDS011;63771;52.580;9.734;2024-02-26T14:29:34;0.63;;;0.63;;
75191;SDS011;63771;52.580;9.734;2024-02-26T14:31:59;0.82;;;0.82;;
75191;SDS011;63771;52.580;9.734;2024-02-26T14:34:26;0.70;;;0.70;;
75191;SDS011;63771;52.580;9.734;2024-02-26T14:36:51;1.33;;;1.10;;
75191;SDS011;63771;52.580;9.734;2024-02-26T14:39:17;3.07;;;0.80;;
75191;SDS011;63771;52.580;9.734;2024-02-26T14:41:42;1.50;;;1.17;;
75191;SDS011;63771;52.580;9.734;2024-02-26T14:44:07;1.80;;;1.57;;
75191;SDS011;63771;52.580;9.734;2024-02-26T14:46:33;1.70;;;1.60;;
75191;SDS011;63771;52.580;9.734;2024-02-26T14:48:58;2.00;;;1.90;;
75191;SDS011;63771;52.580;9.734;2024-02-26T14:51:24;1.77;;;1.67;;
75191;SDS011;63771;52.580;9.734;2024-02-26T14:53:49;2.10;;;1.92;;
75191;SDS011;63771;52.580;9.734;2024-02-26T14:56:15;1.73;;;1.63;;
75191;SDS011;63771;52.580;9.734;2024-02-26T14:58:40;1.50;;;1.13;;